createdAt,value
2022-11-28T00:01:03.089Z,1009.89
2022-11-28T00:05:07.797Z,1009.83
2022-11-28T00:10:08.354Z,1009.78
2022-11-28T00:15:08.021Z,1009.74
2022-11-28T00:20:07.738Z,1009.71
2022-11-28T00:25:08.462Z,1009.7
2022-11-28T00:30:08.184Z,1009.62
2022-11-28T00:35:07.885Z,1009.58
2022-11-28T00:40:08.636Z,1009.59
2022-11-28T00:45:08.731Z,1009.53
2022-11-28T00:50:08.470Z,1009.45
2022-11-28T00:55:08.195Z,1009.47
2022-11-28T01:00:07.926Z,1009.39
2022-11-28T01:05:07.747Z,1009.38
2022-11-28T01:10:08.496Z,1009.39
2022-11-28T01:15:08.213Z,1009.35
2022-11-28T01:20:07.950Z,1009.12
2022-11-28T01:25:08.937Z,1009.18
2022-11-28T01:30:08.653Z,1009.21
2022-11-28T01:35:08.367Z,1009.21
2022-11-28T01:40:08.054Z,1009.12
2022-11-28T01:45:07.778Z,1009.05
2022-11-28T01:50:08.679Z,1009.04
2022-11-28T01:55:08.396Z,1009.11
2022-11-28T02:00:08.131Z,1009.11
2022-11-28T02:05:07.855Z,1009.23
2022-11-28T02:10:08.593Z,1009.25
2022-11-28T02:15:12.236Z,1009.09
2022-11-28T02:20:07.977Z,1009.09
2022-11-28T02:25:07.683Z,1009.16
2022-11-28T02:30:08.424Z,1009.19
2022-11-28T02:35:08.179Z,1009.07
2022-11-28T02:40:10.446Z,1009.0
2022-11-28T02:45:08.150Z,1008.92
2022-11-28T02:50:07.825Z,1008.83
2022-11-28T02:55:08.538Z,1008.94
2022-11-28T03:00:08.274Z,1008.88
2022-11-28T03:05:07.990Z,1008.88
2022-11-28T03:10:07.792Z,1008.85
2022-11-28T03:15:08.510Z,1008.83
2022-11-28T03:20:08.236Z,1008.73
2022-11-28T03:25:07.974Z,1008.79
2022-11-28T03:30:07.685Z,1008.73
2022-11-28T03:35:08.394Z,1008.76
2022-11-28T03:40:08.111Z,1008.78
2022-11-28T03:45:07.823Z,1008.76
2022-11-28T03:50:08.535Z,1008.84
2022-11-28T03:55:08.272Z,1008.86
2022-11-28T04:00:07.964Z,1008.94
2022-11-28T04:05:17.682Z,1008.92
2022-11-28T04:10:08.411Z,1008.94
2022-11-28T04:15:08.121Z,1008.8
2022-11-28T04:20:07.842Z,1008.83
2022-11-28T04:25:08.554Z,1008.84
2022-11-28T04:30:08.234Z,1008.87
2022-11-28T04:35:07.960Z,1008.9
2022-11-28T04:40:07.701Z,1008.81
2022-11-28T04:45:08.383Z,1008.76
2022-11-28T04:50:08.122Z,1008.74
2022-11-28T04:55:07.822Z,1008.77
2022-11-28T05:00:08.540Z,1008.8
2022-11-28T05:05:02.307Z,1008.69
2022-11-28T05:10:02.137Z,1008.75
2022-11-28T05:15:02.388Z,1008.74
2022-11-28T05:20:02.232Z,1008.81
2022-11-28T05:25:01.983Z,1008.87
2022-11-28T05:30:01.880Z,1008.74
2022-11-28T05:35:02.735Z,1008.87
2022-11-28T05:40:02.535Z,1008.89
2022-11-28T05:45:02.396Z,1008.95
2022-11-28T05:50:02.210Z,1008.86
2022-11-28T05:55:02.036Z,1009.01
2022-11-28T06:00:01.860Z,1009.0
2022-11-28T06:05:20.988Z,1009.01
2022-11-28T06:10:01.835Z,1008.95
2022-11-28T06:15:02.668Z,1008.94
2022-11-28T06:20:02.473Z,1008.94
2022-11-28T06:25:02.221Z,1008.96
2022-11-28T06:30:02.056Z,1008.92
2022-11-28T06:35:01.885Z,1009.02
2022-11-28T06:40:02.746Z,1009.0
2022-11-28T06:45:02.615Z,1008.93
2022-11-28T06:50:02.355Z,1008.95
2022-11-28T06:55:02.215Z,1008.95
2022-11-28T07:00:02.066Z,1009.08
2022-11-28T07:05:01.983Z,1009.1
2022-11-28T07:10:01.924Z,1009.19
2022-11-28T07:15:02.770Z,1009.2
2022-11-28T07:20:02.788Z,1009.28
2022-11-28T07:25:02.738Z,1009.28
2022-11-28T07:30:02.633Z,1009.32
2022-11-28T07:35:02.573Z,1009.3
2022-11-28T07:40:02.549Z,1009.28
2022-11-28T07:45:02.266Z,1009.31
2022-11-28T07:50:02.091Z,1009.28
2022-11-28T07:55:01.906Z,1009.33
2022-11-28T08:00:02.745Z,1009.35
2022-11-28T08:05:02.551Z,1009.21
2022-11-28T08:10:02.391Z,1009.26
2022-11-28T08:15:02.130Z,1009.31
2022-11-28T08:20:02.017Z,1009.37
2022-11-28T08:25:02.033Z,1009.32
2022-11-28T08:30:01.934Z,1009.44
2022-11-28T08:35:02.805Z,1009.46
2022-11-28T08:40:02.736Z,1009.48
2022-11-28T08:45:02.566Z,1009.46
2022-11-28T08:50:02.351Z,1009.38
2022-11-28T08:55:02.194Z,1009.45
2022-11-28T09:00:02.061Z,1009.46
2022-11-28T09:05:01.946Z,1009.52
2022-11-28T09:10:01.921Z,1009.54
2022-11-28T09:15:02.754Z,1009.63
2022-11-28T09:20:04.890Z,1009.63
2022-11-28T09:25:02.690Z,1009.65
2022-11-28T09:30:02.503Z,1009.68
2022-11-28T09:35:02.185Z,1009.73
2022-11-28T09:40:14.059Z,1009.6
2022-11-28T09:45:02.015Z,1009.74
2022-11-28T09:50:01.889Z,1009.77
2022-11-28T09:55:02.897Z,1009.79
2022-11-28T10:00:02.839Z,1009.8
2022-11-28T10:05:02.819Z,1009.8
2022-11-28T10:10:02.939Z,1009.81
2022-11-28T10:15:02.925Z,1009.86
2022-11-28T10:20:12.849Z,1009.81
2022-11-28T10:25:02.819Z,1009.83
2022-11-28T10:30:02.621Z,1009.75
2022-11-28T10:35:02.451Z,1009.7
2022-11-28T10:40:02.338Z,1009.71
2022-11-28T10:45:02.039Z,1009.65
2022-11-28T10:50:01.831Z,1009.64
2022-11-28T10:55:02.719Z,1009.68
2022-11-28T11:00:02.535Z,1009.74
2022-11-28T11:05:02.422Z,1009.72
2022-11-28T11:10:07.306Z,1009.66
2022-11-28T11:15:12.079Z,1009.61
2022-11-28T11:20:01.918Z,1009.64
2022-11-28T11:25:02.678Z,1009.55
2022-11-28T11:30:02.554Z,1009.54
2022-11-28T11:35:02.347Z,1009.52
2022-11-28T11:40:02.169Z,1009.56
2022-11-28T11:45:02.019Z,1009.55
2022-11-28T11:50:01.840Z,1009.53
2022-11-28T11:55:02.669Z,1009.54
2022-11-28T12:00:02.511Z,1009.66
2022-11-28T12:05:02.523Z,1009.7
2022-11-28T12:10:04.758Z,1009.59
2022-11-28T12:15:01.789Z,1009.62
2022-11-28T12:20:02.982Z,1009.7
2022-11-28T12:25:01.718Z,1009.73
2022-11-28T12:30:12.579Z,1009.82
2022-11-28T12:35:02.508Z,1009.75
2022-11-28T12:40:02.431Z,1009.74
2022-11-28T12:45:02.401Z,1009.72
2022-11-28T12:50:02.310Z,1009.69
2022-11-28T12:55:02.172Z,1009.69
2022-11-28T13:00:08.146Z,1009.71
2022-11-28T13:05:02.526Z,1009.7
2022-11-28T13:10:02.363Z,1009.76
2022-11-28T13:15:02.215Z,1009.72
2022-11-28T13:20:11.892Z,1009.69
2022-11-28T13:25:02.771Z,1009.72
2022-11-28T13:30:02.611Z,1009.75
2022-11-28T13:35:02.580Z,1009.79
2022-11-28T13:40:02.465Z,1009.81
2022-11-28T13:45:02.778Z,1009.81
2022-11-28T13:50:12.659Z,1009.92
2022-11-28T13:55:02.584Z,1009.96
2022-11-28T14:00:02.420Z,1009.95
2022-11-28T14:05:02.204Z,1009.94
2022-11-28T14:10:02.077Z,1009.95
2022-11-28T14:15:01.835Z,1009.94
2022-11-28T14:20:02.704Z,1010.01
2022-11-28T14:25:07.000Z,1010.01
2022-11-28T14:30:01.832Z,1010.03
2022-11-28T14:35:02.834Z,1010.11
2022-11-28T14:40:02.650Z,1010.08
2022-11-28T14:45:08.190Z,1010.15
2022-11-28T14:50:05.122Z,1010.22
2022-11-28T14:55:02.135Z,1010.22
2022-11-28T15:00:01.967Z,1010.22
2022-11-28T15:05:01.792Z,1010.2
2022-11-28T15:10:07.071Z,1010.2
2022-11-28T15:15:02.577Z,1010.37
2022-11-28T15:20:02.569Z,1010.37
2022-11-28T15:25:02.629Z,1010.42
2022-11-28T15:30:02.647Z,1010.48
2022-11-28T15:35:06.431Z,1010.43
2022-11-28T15:40:02.315Z,1010.37
2022-11-28T15:45:02.289Z,1010.41
2022-11-28T15:50:02.925Z,1010.41
2022-11-28T15:55:02.893Z,1010.35
2022-11-28T16:00:02.717Z,1010.35
2022-11-28T16:05:02.511Z,1010.59
2022-11-28T16:10:02.378Z,1010.57
2022-11-28T16:15:02.235Z,1010.6
2022-11-28T16:20:02.125Z,1010.66
2022-11-28T16:25:01.924Z,1010.75
2022-11-28T16:30:12.786Z,1010.65
2022-11-28T16:35:02.606Z,1010.58
2022-11-28T16:40:02.428Z,1010.76
2022-11-28T16:45:02.298Z,1010.77
2022-11-28T16:50:05.117Z,1010.82
2022-11-28T16:55:01.914Z,1010.85
2022-11-28T17:00:02.859Z,1010.83
2022-11-28T17:05:02.729Z,1010.91
2022-11-28T17:10:02.677Z,1011.01
2022-11-28T17:15:02.441Z,1011.05
2022-11-28T17:20:02.516Z,1011.05
2022-11-28T17:25:02.362Z,1011.16
2022-11-28T17:30:02.203Z,1011.25
2022-11-28T17:35:02.087Z,1011.27
2022-11-28T17:40:01.992Z,1011.3
2022-11-28T17:45:01.899Z,1011.24
2022-11-28T17:50:02.762Z,1011.33
2022-11-28T17:55:06.573Z,1011.33
2022-11-28T18:00:02.277Z,1011.26
2022-11-28T18:05:02.299Z,1011.31
2022-11-28T18:10:02.276Z,1011.27
2022-11-28T18:15:02.387Z,1011.39
2022-11-28T18:20:02.198Z,1011.38
2022-11-28T18:25:02.317Z,1011.35
2022-11-28T18:30:02.211Z,1011.46
2022-11-28T18:35:02.158Z,1011.58
2022-11-28T18:40:05.158Z,1011.52
2022-11-28T18:45:02.735Z,1011.52
2022-11-28T18:50:02.606Z,1011.52
2022-11-28T18:55:02.651Z,1011.55
2022-11-28T19:00:02.524Z,1011.66
2022-11-28T19:05:02.443Z,1011.71
2022-11-28T19:10:02.352Z,1011.67
2022-11-28T19:15:02.863Z,1011.7
2022-11-28T19:20:02.857Z,1011.66
2022-11-28T19:25:03.021Z,1011.71
2022-11-28T19:30:01.870Z,1011.66
2022-11-28T19:35:02.678Z,1011.74
2022-11-28T19:40:03.155Z,1011.78
2022-11-28T19:45:02.179Z,1011.86
2022-11-28T19:50:02.057Z,1011.85
2022-11-28T19:55:01.879Z,1011.84
2022-11-28T20:00:02.747Z,1011.83
2022-11-28T20:05:02.561Z,1011.9
2022-11-28T20:10:02.387Z,1011.84
2022-11-28T20:15:02.286Z,1012.04
2022-11-28T20:20:02.219Z,1012.09
2022-11-28T20:25:01.986Z,1012.13
2022-11-28T20:30:01.808Z,1012.09
2022-11-28T20:35:02.725Z,1012.25
2022-11-28T20:40:02.735Z,1012.23
2022-11-28T20:45:02.754Z,1012.25
2022-11-28T20:50:02.687Z,1012.22
2022-11-28T20:55:02.801Z,1012.32
2022-11-28T21:00:02.679Z,1012.43
2022-11-28T21:05:02.687Z,1012.38
2022-11-28T21:10:02.601Z,1012.36
2022-11-28T21:15:02.426Z,1012.38
2022-11-28T21:20:02.298Z,1012.38
2022-11-28T21:25:02.132Z,1012.46
2022-11-28T21:30:01.875Z,1012.45
2022-11-28T21:35:04.660Z,1012.4
2022-11-28T21:40:02.719Z,1012.41
2022-11-28T21:45:02.640Z,1012.51
2022-11-28T21:50:02.487Z,1012.49
2022-11-28T21:55:02.319Z,1012.58
2022-11-28T22:00:02.082Z,1012.58
2022-11-28T22:05:07.797Z,1012.64
2022-11-28T22:10:08.550Z,1012.65
2022-11-28T22:15:08.271Z,1012.59
2022-11-28T22:20:08.016Z,1012.59
2022-11-28T22:25:07.729Z,1012.59
2022-11-28T22:30:08.464Z,1012.56
2022-11-28T22:35:08.185Z,1012.62
2022-11-28T22:40:07.926Z,1012.71
2022-11-28T22:45:08.700Z,1012.74
2022-11-28T22:50:08.381Z,1012.79
2022-11-28T22:55:08.103Z,1012.79
2022-11-28T23:00:07.888Z,1012.84
2022-11-28T23:05:08.585Z,1012.82
2022-11-28T23:10:08.280Z,1012.98
2022-11-28T23:15:08.000Z,1013.08
2022-11-28T23:20:07.716Z,1013.12
2022-11-28T23:25:08.414Z,1013.15
2022-11-28T23:30:08.357Z,1013.19
2022-11-28T23:35:08.068Z,1013.2
2022-11-28T23:40:07.799Z,1013.12
2022-11-28T23:45:08.551Z,1013.16
2022-11-28T23:50:08.322Z,1013.21
2022-11-28T23:55:08.027Z,1013.2
